sensor_id;sensor_type;location;lat;lon;timestamp;pressure;altitude;pressure_sealevel;temperature;humidity
42725;BME280;28369;44.046;23.014;2023-01-24T00:00:54;102647.38;;;2.58;100.00
42725;BME280;28369;44.046;23.014;2023-01-24T00:03:20;102276.50;;;0.03;100.00
42725;BME280;28369;44.046;23.014;2023-01-24T00:05:46;102220.09;;;-0.31;100.00
42725;BME280;28369;44.046;23.014;2023-01-24T00:08:14;102191.91;;;-0.53;100.00
42725;BME280;28369;44.046;23.014;2023-01-24T00:10:40;102607.84;;;1.93;100.00
42725;BME280;28369;44.046;23.014;2023-01-24T00:13:07;102631.00;;;2.05;100.00
42725;BME280;28369;44.046;23.014;2023-01-24T00:15:35;102365.34;;;0.64;100.00
42725;BME280;28369;44.046;23.014;2023-01-24T00:18:00;102668.78;;;2.21;100.00
42725;BME280;28369;44.046;23.014;2023-01-24T00:20:26;102344.22;;;0.32;100.00
42725;BME280;28369;44.046;23.014;2023-01-24T00:22:51;102298.84;;;0.08;100.00
42725;BME280;28369;44.046;23.014;2023-01-24T00:25:17;102238.91;;;-0.22;100.00
42725;BME280;28369;44.046;23.014;2023-01-24T00:27:43;102640.50;;;2.06;100.00
42725;BME280;28369;44.046;23.014;2023-01-24T00:30:09;102627.56;;;2.04;100.00
42725;BME280;28369;44.046;23.014;2023-01-24T00:32:35;102577.94;;;1.70;100.00
42725;BME280;28369;44.046;23.014;2023-01-24T00:35:00;102596.94;;;1.72;100.00
42725;BME280;28369;44.046;23.014;2023-01-24T00:37:26;102620.75;;;1.96;100.00
42725;BME280;28369;44.046;23.014;2023-01-24T00:39:51;102574.69;;;1.55;100.00
42725;BME280;28369;44.046;23.014;2023-01-24T00:42:17;102381.94;;;0.50;100.00
42725;BME280;28369;44.046;23.014;2023-01-24T00:44:42;102652.69;;;2.01;100.00
42725;BME280;28369;44.046;23.014;2023-01-24T00:47:08;102491.63;;;1.09;100.00
42725;BME280;28369;44.046;23.014;2023-01-24T00:49:33;102656.50;;;2.33;100.00
42725;BME280;28369;44.046;23.014;2023-01-24T00:51:59;102873.47;;;3.55;100.00
42725;BME280;28369;44.046;23.014;2023-01-24T00:54:24;102499.00;;;1.35;100.00
42725;BME280;28369;44.046;23.014;2023-01-24T00:56:50;102523.66;;;1.59;100.00
42725;BME280;28369;44.046;23.014;2023-01-24T00:59:15;102170.44;;;-0.55;100.00
42725;BME280;28369;44.046;23.014;2023-01-24T01:01:41;102249.97;;;-0.10;100.00
42725;BME280;28369;44.046;23.014;2023-01-24T01:04:06;102615.50;;;2.02;100.00
42725;BME280;28369;44.046;23.014;2023-01-24T01:06:32;102366.47;;;0.47;100.00
42725;BME280;28369;44.046;23.014;2023-01-24T01:08:58;102517.94;;;1.37;100.00
42725;BME280;28369;44.046;23.014;2023-01-24T01:11:23;102300.44;;;0.17;100.00
42725;BME280;28369;44.046;23.014;2023-01-24T01:13:49;102647.13;;;2.24;100.00
42725;BME280;28369;44.046;23.014;2023-01-24T01:16:18;102855.31;;;3.52;100.00
42725;BME280;28369;44.046;23.014;2023-01-24T01:18:48;102467.44;;;1.07;100.00
42725;BME280;28369;44.046;23.014;2023-01-24T01:21:17;102644.75;;;2.12;100.00
42725;BME280;28369;44.046;23.014;2023-01-24T01:23:44;102189.38;;;-0.56;100.00
42725;BME280;28369;44.046;23.014;2023-01-24T01:26:15;102619.72;;;2.07;100.00
42725;BME280;28369;44.046;23.014;2023-01-24T01:28:41;102203.81;;;-0.38;100.00
42725;BME280;28369;44.046;23.014;2023-01-24T01:31:06;102236.38;;;-0.25;100.00
42725;BME280;28369;44.046;23.014;2023-01-24T01:33:32;102879.72;;;3.45;100.00
42725;BME280;28369;44.046;23.014;2023-01-24T01:35:58;102501.78;;;1.21;100.00
42725;BME280;28369;44.046;23.014;2023-01-24T01:38:24;102900.03;;;3.71;100.00
42725;BME280;28369;44.046;23.014;2023-01-24T01:40:50;102207.41;;;-0.50;100.00
42725;BME280;28369;44.046;23.014;2023-01-24T01:43:18;102367.19;;;0.56;100.00
42725;BME280;28369;44.046;23.014;2023-01-24T01:45:47;102831.88;;;3.54;100.00
42725;BME280;28369;44.046;23.014;2023-01-24T01:48:19;102748.97;;;2.91;100.00
42725;BME280;28369;44.046;23.014;2023-01-24T01:50:55;102171.25;;;-0.50;100.00
42725;BME280;28369;44.046;23.014;2023-01-24T01:53:23;102660.00;;;2.29;100.00
42725;BME280;28369;44.046;23.014;2023-01-24T01:55:57;102474.91;;;1.28;100.00
42725;BME280;28369;44.046;23.014;2023-01-24T01:58:24;102629.88;;;2.20;100.00
42725;BME280;28369;44.046;23.014;2023-01-24T02:00:50;102526.06;;;1.70;100.00
42725;BME280;28369;44.046;23.014;2023-01-24T02:03:20;102544.50;;;1.51;100.00
42725;BME280;28369;44.046;23.014;2023-01-24T02:06:22;102622.34;;;2.06;100.00
42725;BME280;28369;44.046;23.014;2023-01-24T02:08:51;102341.44;;;0.46;100.00
42725;BME280;28369;44.046;23.014;2023-01-24T02:11:18;102656.78;;;2.17;100.00
42725;BME280;28369;44.046;23.014;2023-01-24T02:14:02;102830.63;;;3.28;100.00
42725;BME280;28369;44.046;23.014;2023-01-24T02:16:47;102500.94;;;1.20;100.00
42725;BME280;28369;44.046;23.014;2023-01-24T02:21:57;102293.09;;;-0.12;100.00
42725;BME280;28369;44.046;23.014;2023-01-24T02:24:30;102389.53;;;0.61;100.00
42725;BME280;28369;44.046;23.014;2023-01-24T02:26:57;102475.63;;;1.36;100.00
42725;BME280;28369;44.046;23.014;2023-01-24T02:29:22;102614.91;;;1.84;100.00
42725;BME280;28369;44.046;23.014;2023-01-24T02:32:02;102596.69;;;1.87;100.00
42725;BME280;28369;44.046;23.014;2023-01-24T02:34:30;102643.97;;;2.05;100.00
42725;BME280;28369;44.046;23.014;2023-01-24T02:36:58;102216.91;;;-0.54;100.00
42725;BME280;28369;44.046;23.014;2023-01-24T02:39:29;102352.44;;;0.00;100.00
42725;BME280;28369;44.046;23.014;2023-01-24T02:42:10;102631.75;;;2.13;100.00
42725;BME280;28369;44.046;23.014;2023-01-24T02:47:07;102597.75;;;1.74;100.00
42725;BME280;28369;44.046;23.014;2023-01-24T02:49:33;102634.25;;;1.63;100.00
42725;BME280;28369;44.046;23.014;2023-01-24T02:51:58;102671.75;;;1.98;100.00
42725;BME280;28369;44.046;23.014;2023-01-24T02:54:50;102629.84;;;1.67;100.00
42725;BME280;28369;44.046;23.014;2023-01-24T02:57:16;102192.88;;;-0.60;100.00
42725;BME280;28369;44.046;23.014;2023-01-24T03:00:00;102659.22;;;2.25;100.00
42725;BME280;28369;44.046;23.014;2023-01-24T03:02:25;102220.13;;;-0.36;100.00
42725;BME280;28369;44.046;23.014;2023-01-24T03:04:51;102678.31;;;2.21;100.00
42725;BME280;28369;44.046;23.014;2023-01-24T03:07:16;102624.25;;;1.95;100.00
42725;BME280;28369;44.046;23.014;2023-01-24T03:09:42;102384.81;;;0.29;100.00
42725;BME280;28369;44.046;23.014;2023-01-24T03:12:13;102604.50;;;1.87;100.00
42725;BME280;28369;44.046;23.014;2023-01-24T03:14:57;102276.03;;;-0.29;100.00
42725;BME280;28369;44.046;23.014;2023-01-24T03:17:41;102574.69;;;1.55;100.00
42725;BME280;28369;44.046;23.014;2023-01-24T03:20:25;102243.50;;;-0.44;100.00
42725;BME280;28369;44.046;23.014;2023-01-24T03:23:09;102544.53;;;1.53;100.00
42725;BME280;28369;44.046;23.014;2023-01-24T03:25:54;102352.66;;;0.47;100.00
42725;BME280;28369;44.046;23.014;2023-01-24T03:28:38;102573.56;;;1.73;100.00
42725;BME280;28369;44.046;23.014;2023-01-24T03:31:22;102883.28;;;3.41;100.00
42725;BME280;28369;44.046;23.014;2023-01-24T03:34:06;102717.13;;;2.29;100.00
42725;BME280;28369;44.046;23.014;2023-01-24T03:36:50;102818.25;;;2.92;100.00
42725;BME280;28369;44.046;23.014;2023-01-24T03:39:15;102786.31;;;2.86;100.00
42725;BME280;28369;44.046;23.014;2023-01-24T03:41:59;102789.94;;;2.75;100.00
42725;BME280;28369;44.046;23.014;2023-01-24T03:44:25;102769.31;;;2.68;100.00
42725;BME280;28369;44.046;23.014;2023-01-24T03:46:50;102612.38;;;1.80;100.00
42725;BME280;28369;44.046;23.014;2023-01-24T03:49:16;102751.38;;;2.52;100.00
42725;BME280;28369;44.046;23.014;2023-01-24T03:51:42;102436.88;;;0.71;100.00
42725;BME280;28369;44.046;23.014;2023-01-24T03:54:27;102719.59;;;2.38;100.00
42725;BME280;28369;44.046;23.014;2023-01-24T03:56:52;102221.34;;;-0.63;100.00
42725;BME280;28369;44.046;23.014;2023-01-24T03:59:18;102411.53;;;0.29;100.00
42725;BME280;28369;44.046;23.014;2023-01-24T04:01:43;102293.41;;;-0.40;100.00
42725;BME280;28369;44.046;23.014;2023-01-24T04:04:09;102683.78;;;2.04;100.00
42725;BME280;28369;44.046;23.014;2023-01-24T04:06:36;102646.41;;;1.58;100.00
42725;BME280;28369;44.046;23.014;2023-01-24T04:09:02;102689.28;;;1.82;100.00
42725;BME280;28369;44.046;23.014;2023-01-24T04:11:27;102253.22;;;-0.63;100.00
42725;BME280;28369;44.046;23.014;2023-01-24T04:13:53;102613.41;;;1.69;100.00
42725;BME280;28369;44.046;23.014;2023-01-24T04:16:18;102657.41;;;1.74;100.00
42725;BME280;28369;44.046;23.014;2023-01-24T04:18:44;102281.94;;;-0.18;100.00
42725;BME280;28369;44.046;23.014;2023-01-24T04:21:10;102308.47;;;-0.03;100.00
42725;BME280;28369;44.046;23.014;2023-01-24T04:23:36;102899.78;;;3.38;100.00
42725;BME280;28369;44.046;23.014;2023-01-24T04:26:02;102686.88;;;2.28;100.00
42725;BME280;28369;44.046;23.014;2023-01-24T04:28:30;102655.09;;;2.13;100.00
42725;BME280;28369;44.046;23.014;2023-01-24T04:30:59;102314.47;;;0.02;100.00
42725;BME280;28369;44.046;23.014;2023-01-24T04:33:26;102420.59;;;0.63;100.00
42725;BME280;28369;44.046;23.014;2023-01-24T04:35:56;102456.91;;;0.57;100.00
42725;BME280;28369;44.046;23.014;2023-01-24T04:38:21;102294.97;;;-0.25;100.00
42725;BME280;28369;44.046;23.014;2023-01-24T04:40:47;102690.91;;;1.89;100.00
42725;BME280;28369;44.046;23.014;2023-01-24T04:43:12;102413.19;;;0.37;100.00
42725;BME280;28369;44.046;23.014;2023-01-24T04:45:38;102319.16;;;-0.31;100.00
42725;BME280;28369;44.046;23.014;2023-01-24T04:48:03;102368.28;;;0.39;100.00
42725;BME280;28369;44.046;23.014;2023-01-24T04:50:29;102645.81;;;1.98;100.00
42725;BME280;28369;44.046;23.014;2023-01-24T04:52:54;102619.19;;;1.85;100.00
42725;BME280;28369;44.046;23.014;2023-01-24T04:55:20;102663.13;;;1.98;100.00
42725;BME280;28369;44.046;23.014;2023-01-24T04:57:45;102535.47;;;1.21;100.00
42725;BME280;28369;44.046;23.014;2023-01-24T05:00:11;102314.59;;;-0.10;100.00
42725;BME280;28369;44.046;23.014;2023-01-24T05:02:36;102337.31;;;-0.34;100.00
42725;BME280;28369;44.046;23.014;2023-01-24T05:05:05;102561.38;;;1.21;100.00
42725;BME280;28369;44.046;23.014;2023-01-24T05:07:31;102874.84;;;3.26;100.00
42725;BME280;28369;44.046;23.014;2023-01-24T05:09:56;102254.06;;;-0.62;100.00
42725;BME280;28369;44.046;23.014;2023-01-24T05:12:22;102563.38;;;1.02;100.00
42725;BME280;28369;44.046;23.014;2023-01-24T05:14:47;102600.56;;;1.62;100.00
42725;BME280;28369;44.046;23.014;2023-01-24T05:17:13;102322.63;;;-0.32;100.00
42725;BME280;28369;44.046;23.014;2023-01-24T05:19:38;102667.44;;;1.99;100.00
42725;BME280;28369;44.046;23.014;2023-01-24T05:22:04;102618.69;;;1.63;100.00
42725;BME280;28369;44.046;23.014;2023-01-24T05:24:29;102277.16;;;-0.52;100.00
42725;BME280;28369;44.046;23.014;2023-01-24T05:26:55;102290.59;;;-0.22;100.00
42725;BME280;28369;44.046;23.014;2023-01-24T05:29:20;102321.78;;;-0.32;100.00
42725;BME280;28369;44.046;23.014;2023-01-24T05:31:46;102414.19;;;0.26;100.00
42725;BME280;28369;44.046;23.014;2023-01-24T05:34:11;102532.94;;;1.18;100.00
42725;BME280;28369;44.046;23.014;2023-01-24T05:36:37;102545.72;;;1.30;100.00
42725;BME280;28369;44.046;23.014;2023-01-24T05:39:02;102371.78;;;0.37;100.00
42725;BME280;28369;44.046;23.014;2023-01-24T05:41:28;102580.72;;;1.59;100.00
42725;BME280;28369;44.046;23.014;2023-01-24T05:43:53;102347.69;;;0.31;100.00
42725;BME280;28369;44.046;23.014;2023-01-24T05:46:20;102391.50;;;0.44;100.00
42725;BME280;28369;44.046;23.014;2023-01-24T05:48:47;102417.06;;;0.67;100.00
42725;BME280;28369;44.046;23.014;2023-01-24T05:51:15;102415.38;;;0.66;100.00
42725;BME280;28369;44.046;23.014;2023-01-24T05:53:42;102336.63;;;0.19;100.00
42725;BME280;28369;44.046;23.014;2023-01-24T05:56:26;102712.84;;;2.28;100.00
42725;BME280;28369;44.046;23.014;2023-01-24T05:58:52;102340.31;;;0.02;100.00
42725;BME280;28369;44.046;23.014;2023-01-24T06:01:20;102655.25;;;2.02;100.00
42725;BME280;28369;44.046;23.014;2023-01-24T06:03:48;102305.81;;;0.05;100.00
42725;BME280;28369;44.046;23.014;2023-01-24T06:06:16;102697.47;;;2.14;100.00
42725;BME280;28369;44.046;23.014;2023-01-24T06:08:42;102928.63;;;3.73;100.00
42725;BME280;28369;44.046;23.014;2023-01-24T06:11:16;102411.06;;;0.65;100.00
42725;BME280;28369;44.046;23.014;2023-01-24T06:13:43;102361.84;;;0.03;100.00
42725;BME280;28369;44.046;23.014;2023-01-24T06:16:20;102684.09;;;1.82;100.00
42725;BME280;28369;44.046;23.014;2023-01-24T06:18:47;102371.47;;;-0.10;100.00
42725;BME280;28369;44.046;23.014;2023-01-24T06:23:44;102474.72;;;0.83;100.00
42725;BME280;28369;44.046;23.014;2023-01-24T06:26:10;102734.25;;;2.42;100.00
42725;BME280;28369;44.046;23.014;2023-01-24T06:28:37;102910.13;;;3.41;100.00
42725;BME280;28369;44.046;23.014;2023-01-24T06:31:34;102976.66;;;4.05;100.00
42725;BME280;28369;44.046;23.014;2023-01-24T06:39:33;102642.88;;;2.18;99.48
42725;BME280;28369;44.046;23.014;2023-01-24T06:41:59;102812.06;;;3.00;98.56
42725;BME280;28369;44.046;23.014;2023-01-24T06:44:25;102466.09;;;0.81;100.00
42725;BME280;28369;44.046;23.014;2023-01-24T06:46:51;102461.63;;;0.91;99.53
42725;BME280;28369;44.046;23.014;2023-01-24T06:49:16;102490.91;;;0.97;99.70
42725;BME280;28369;44.046;23.014;2023-01-24T06:51:42;102717.88;;;2.35;98.83
42725;BME280;28369;44.046;23.014;2023-01-24T06:54:07;102470.38;;;0.83;98.03
42725;BME280;28369;44.046;23.014;2023-01-24T06:56:33;102817.75;;;2.70;98.45
42725;BME280;28369;44.046;23.014;2023-01-24T06:58:59;102364.03;;;0.35;98.19
42725;BME280;28369;44.046;23.014;2023-01-24T07:01:24;102448.41;;;0.47;98.34
42725;BME280;28369;44.046;23.014;2023-01-24T07:03:50;102765.09;;;2.61;99.27
42725;BME280;28369;44.046;23.014;2023-01-24T07:06:15;102829.69;;;2.82;98.13
42725;BME280;28369;44.046;23.014;2023-01-24T07:08:41;102654.72;;;1.82;98.21
42725;BME280;28369;44.046;23.014;2023-01-24T07:31:14;102561.66;;;1.62;95.47
42725;BME280;28369;44.046;23.014;2023-01-24T07:33:40;102471.94;;;1.50;94.30
42725;BME280;28369;44.046;23.014;2023-01-24T07:36:13;102703.91;;;2.44;96.51
42725;BME280;28369;44.046;23.014;2023-01-24T07:38:39;103013.16;;;4.45;96.35
42725;BME280;28369;44.046;23.014;2023-01-24T07:41:09;102451.13;;;1.03;95.76
42725;BME280;28369;44.046;23.014;2023-01-24T07:43:34;102588.75;;;1.97;95.61
42725;BME280;28369;44.046;23.014;2023-01-24T07:46:00;102963.63;;;4.47;94.62
42725;BME280;28369;44.046;23.014;2023-01-24T07:48:25;103037.09;;;4.66;94.15
42725;BME280;28369;44.046;23.014;2023-01-24T07:50:51;103031.97;;;4.60;95.28
42725;BME280;28369;44.046;23.014;2023-01-24T07:53:16;102478.59;;;1.13;94.32
42725;BME280;28369;44.046;23.014;2023-01-24T07:55:42;102837.84;;;3.60;94.06
42725;BME280;28369;44.046;23.014;2023-01-24T07:58:07;102816.69;;;3.32;92.84
42725;BME280;28369;44.046;23.014;2023-01-24T08:00:33;102830.22;;;3.50;91.12
42725;BME280;28369;44.046;23.014;2023-01-24T08:02:58;103016.19;;;4.67;90.67
42725;BME280;28369;44.046;23.014;2023-01-24T08:05:24;102867.28;;;3.61;89.28
42725;BME280;28369;44.046;23.014;2023-01-24T08:07:50;102591.84;;;1.67;90.25
42725;BME280;28369;44.046;23.014;2023-01-24T08:10:15;102745.88;;;2.71;91.47
42725;BME280;28369;44.046;23.014;2023-01-24T08:12:41;102797.97;;;3.13;91.40
42725;BME280;28369;44.046;23.014;2023-01-24T08:15:07;102984.31;;;4.11;91.08
42725;BME280;28369;44.046;23.014;2023-01-24T08:17:35;102970.91;;;3.37;92.29
42725;BME280;28369;44.046;23.014;2023-01-24T08:20:00;103018.59;;;3.88;90.78
42725;BME280;28369;44.046;23.014;2023-01-24T08:22:26;102945.84;;;3.32;92.23
42725;BME280;28369;44.046;23.014;2023-01-24T08:24:51;102515.88;;;1.01;92.31
42725;BME280;28369;44.046;23.014;2023-01-24T08:27:17;102407.38;;;0.19;90.82
42725;BME280;28369;44.046;23.014;2023-01-24T08:29:42;102892.03;;;2.82;91.64
42725;BME280;28369;44.046;23.014;2023-01-24T08:32:08;102923.25;;;2.79;89.62
42725;BME280;28369;44.046;23.014;2023-01-24T08:34:34;103070.22;;;4.12;88.71
42725;BME280;28369;44.046;23.014;2023-01-24T08:36:59;103107.00;;;3.92;91.62
42725;BME280;28369;44.046;23.014;2023-01-24T08:39:24;102758.25;;;1.96;91.33
42725;BME280;28369;44.046;23.014;2023-01-24T08:41:50;103022.63;;;3.53;91.20
42725;BME280;28369;44.046;23.014;2023-01-24T08:44:15;102875.84;;;2.65;91.61
42725;BME280;28369;44.046;23.014;2023-01-24T08:46:42;102683.41;;;1.71;90.39
42725;BME280;28369;44.046;23.014;2023-01-24T08:49:09;102633.13;;;1.17;90.65
42725;BME280;28369;44.046;23.014;2023-01-24T08:51:35;102710.31;;;1.62;89.13
42725;BME280;28369;44.046;23.014;2023-01-24T08:54:01;102936.28;;;3.32;88.56
42725;BME280;28369;44.046;23.014;2023-01-24T08:56:26;102814.56;;;3.06;88.05
42725;BME280;28369;44.046;23.014;2023-01-24T08:58:52;102855.44;;;3.46;86.54
42725;BME280;28369;44.046;23.014;2023-01-24T09:01:17;102485.41;;;1.19;83.19
42725;BME280;28369;44.046;23.014;2023-01-24T09:03:43;102730.47;;;3.08;81.56
42725;BME280;28369;44.046;23.014;2023-01-24T09:06:09;102984.22;;;4.59;78.83
42725;BME280;28369;44.046;23.014;2023-01-24T09:08:35;102871.72;;;4.01;74.98
42725;BME280;28369;44.046;23.014;2023-01-24T09:11:01;102990.91;;;5.12;76.81
42725;BME280;28369;44.046;23.014;2023-01-24T09:13:27;102870.78;;;4.46;75.94
42725;BME280;28369;44.046;23.014;2023-01-24T09:15:52;103090.72;;;5.92;73.41
42725;BME280;28369;44.046;23.014;2023-01-24T09:18:18;102869.78;;;4.50;72.83
42725;BME280;28369;44.046;23.014;2023-01-24T09:20:44;102859.63;;;4.39;73.84
42725;BME280;28369;44.046;23.014;2023-01-24T09:23:11;103002.59;;;4.94;75.60
42725;BME280;28369;44.046;23.014;2023-01-24T09:25:38;102385.47;;;1.54;74.14
42725;BME280;28369;44.046;23.014;2023-01-24T09:28:04;102445.19;;;1.49;75.35
42725;BME280;28369;44.046;23.014;2023-01-24T09:30:30;102948.97;;;4.43;75.15
42725;BME280;28369;44.046;23.014;2023-01-24T09:32:55;102815.97;;;3.69;74.60
42725;BME280;28369;44.046;23.014;2023-01-24T09:35:21;103053.44;;;5.13;75.15
42725;BME280;28369;44.046;23.014;2023-01-24T09:37:46;102815.41;;;3.55;76.34
42725;BME280;28369;44.046;23.014;2023-01-24T09:42:41;103047.81;;;4.91;75.18
42725;BME280;28369;44.046;23.014;2023-01-24T09:45:29;103062.91;;;5.17;74.72
42725;BME280;28369;44.046;23.014;2023-01-24T09:48:14;102591.38;;;2.45;75.05
42725;BME280;28369;44.046;23.014;2023-01-24T09:50:51;102491.44;;;1.74;73.48
42725;BME280;28369;44.046;23.014;2023-01-24T09:53:29;102553.25;;;2.00;74.24
42725;BME280;28369;44.046;23.014;2023-01-24T09:55:58;102370.25;;;0.82;73.43
42725;BME280;28369;44.046;23.014;2023-01-24T10:00:54;102502.38;;;1.90;74.07
42725;BME280;28369;44.046;23.014;2023-01-24T10:03:23;102740.91;;;3.05;73.04
42725;BME280;28369;44.046;23.014;2023-01-24T10:05:52;102697.56;;;2.61;74.22
42725;BME280;28369;44.046;23.014;2023-01-24T10:19:20;103026.72;;;5.04;74.96
42725;BME280;28369;44.046;23.014;2023-01-24T10:24:37;102762.00;;;3.37;75.58
42725;BME280;28369;44.046;23.014;2023-01-24T10:27:16;102810.72;;;3.72;74.91
42725;BME280;28369;44.046;23.014;2023-01-24T10:29:47;102349.53;;;0.82;74.83
42725;BME280;28369;44.046;23.014;2023-01-24T10:32:29;102595.84;;;2.37;73.97
42725;BME280;28369;44.046;23.014;2023-01-24T10:35:02;102710.31;;;2.74;74.50
42725;BME280;28369;44.046;23.014;2023-01-24T10:37:38;102784.28;;;3.49;74.56
42725;BME280;28369;44.046;23.014;2023-01-24T10:40:11;102732.22;;;3.08;74.54
42725;BME280;28369;44.046;23.014;2023-01-24T10:42:38;102453.53;;;1.67;73.54
42725;BME280;28369;44.046;23.014;2023-01-24T10:48:17;102998.22;;;5.33;74.23
42725;BME280;28369;44.046;23.014;2023-01-24T10:50:44;102636.28;;;2.96;72.58
42725;BME280;28369;44.046;23.014;2023-01-24T10:55:39;102826.03;;;3.86;73.16
42725;BME280;28369;44.046;23.014;2023-01-24T11:00:43;102600.47;;;2.68;72.99
42725;BME280;28369;44.046;23.014;2023-01-24T11:03:32;102964.13;;;5.04;73.90
42725;BME280;28369;44.046;23.014;2023-01-24T11:06:01;102311.94;;;1.11;74.11
42725;BME280;28369;44.046;23.014;2023-01-24T11:08:36;102922.03;;;4.83;74.00
42725;BME280;28369;44.046;23.014;2023-01-24T11:11:03;102620.03;;;2.87;71.46
42725;BME280;28369;44.046;23.014;2023-01-24T11:13:43;102548.66;;;2.60;73.25
42725;BME280;28369;44.046;23.014;2023-01-24T11:18:46;102421.75;;;2.02;70.14
42725;BME280;28369;44.046;23.014;2023-01-24T11:21:18;102402.72;;;2.03;69.81
42725;BME280;28369;44.046;23.014;2023-01-24T11:23:44;102745.38;;;4.24;69.48
42725;BME280;28369;44.046;23.014;2023-01-24T11:26:37;102578.97;;;3.03;68.10
42725;BME280;28369;44.046;23.014;2023-01-24T11:29:05;102530.13;;;2.77;69.31
42725;BME280;28369;44.046;23.014;2023-01-24T11:31:39;102567.34;;;3.20;69.68
42725;BME280;28369;44.046;23.014;2023-01-24T11:42:34;102636.75;;;3.94;67.84
42725;BME280;28369;44.046;23.014;2023-01-24T11:47:46;102242.63;;;1.68;68.89
42725;BME280;28369;44.046;23.014;2023-01-24T11:50:37;102942.00;;;5.56;66.89
42725;BME280;28369;44.046;23.014;2023-01-24T11:53:44;102207.50;;;1.09;67.59
42725;BME280;28369;44.046;23.014;2023-01-24T11:58:58;102925.75;;;5.45;67.80
42725;BME280;28369;44.046;23.014;2023-01-24T12:04:53;102936.41;;;5.35;68.56
42725;BME280;28369;44.046;23.014;2023-01-24T12:10:21;102954.94;;;5.25;69.10
42725;BME280;28369;44.046;23.014;2023-01-24T12:12:54;102942.53;;;5.34;69.17
42725;BME280;28369;44.046;23.014;2023-01-24T12:18:22;102931.59;;;5.18;70.32
42725;BME280;28369;44.046;23.014;2023-01-24T12:20:57;102679.19;;;3.17;72.10
42725;BME280;28369;44.046;23.014;2023-01-24T12:26:10;102293.44;;;0.81;71.76
42725;BME280;28369;44.046;23.014;2023-01-24T12:29:02;102698.31;;;3.56;72.08
42725;BME280;28369;44.046;23.014;2023-01-24T12:31:51;102672.25;;;3.17;72.71
42725;BME280;28369;44.046;23.014;2023-01-24T12:37:20;102465.06;;;2.42;73.24
42725;BME280;28369;44.046;23.014;2023-01-24T12:42:18;102626.53;;;3.07;73.22
42725;BME280;28369;44.046;23.014;2023-01-24T12:44:54;102527.25;;;2.50;71.59
42725;BME280;28369;44.046;23.014;2023-01-24T12:47:35;102679.28;;;3.54;72.44
42725;BME280;28369;44.046;23.014;2023-01-24T12:50:15;102573.44;;;2.78;72.52
42725;BME280;28369;44.046;23.014;2023-01-24T12:53:05;102613.16;;;3.25;71.57
42725;BME280;28369;44.046;23.014;2023-01-24T12:55:41;102510.66;;;2.57;70.21
42725;BME280;28369;44.046;23.014;2023-01-24T13:06:27;102932.94;;;5.00;72.21
42725;BME280;28369;44.046;23.014;2023-01-24T13:11:49;102792.63;;;4.07;71.21
42725;BME280;28369;44.046;23.014;2023-01-24T13:14:23;102656.78;;;3.11;69.86
42725;BME280;28369;44.046;23.014;2023-01-24T13:28:25;102903.03;;;4.78;71.36
42725;BME280;28369;44.046;23.014;2023-01-24T13:34:03;102645.25;;;3.24;70.27
42725;BME280;28369;44.046;23.014;2023-01-24T13:36:34;102803.84;;;4.48;70.63
42725;BME280;28369;44.046;23.014;2023-01-24T13:39:02;102794.94;;;4.21;71.77
42725;BME280;28369;44.046;23.014;2023-01-24T13:44:28;102932.53;;;5.17;70.95
42725;BME280;28369;44.046;23.014;2023-01-24T13:47:02;102988.56;;;4.99;70.50
42725;BME280;28369;44.046;23.014;2023-01-24T13:51:54;102448.00;;;2.31;71.88
42725;BME280;28369;44.046;23.014;2023-01-24T13:54:39;102951.91;;;5.42;70.74
42725;BME280;28369;44.046;23.014;2023-01-24T14:02:36;102860.22;;;4.88;71.36
42725;BME280;28369;44.046;23.014;2023-01-24T14:21:52;102448.47;;;2.07;72.92
42725;BME280;28369;44.046;23.014;2023-01-24T14:24:29;102960.25;;;5.20;72.83
42725;BME280;28369;44.046;23.014;2023-01-24T14:27:00;102780.88;;;3.89;72.52
42725;BME280;28369;44.046;23.014;2023-01-24T14:29:38;102609.47;;;2.95;72.81
42725;BME280;28369;44.046;23.014;2023-01-24T14:32:18;102596.50;;;2.93;72.47
42725;BME280;28369;44.046;23.014;2023-01-24T14:34:49;102397.75;;;1.44;72.87
42725;BME280;28369;44.046;23.014;2023-01-24T14:37:18;102533.50;;;2.38;73.13
42725;BME280;28369;44.046;23.014;2023-01-24T14:39:43;102313.81;;;1.01;73.13
42725;BME280;28369;44.046;23.014;2023-01-24T14:42:13;102318.56;;;0.76;73.47
42725;BME280;28369;44.046;23.014;2023-01-24T14:44:52;102962.56;;;4.96;74.04
42725;BME280;28369;44.046;23.014;2023-01-24T14:47:24;102664.03;;;2.95;74.99
42725;BME280;28369;44.046;23.014;2023-01-24T14:49:52;102450.06;;;2.15;73.82
42725;BME280;28369;44.046;23.014;2023-01-24T14:52:21;102575.56;;;2.57;73.95
42725;BME280;28369;44.046;23.014;2023-01-24T14:57:27;102322.28;;;1.11;74.38
42725;BME280;28369;44.046;23.014;2023-01-24T15:02:24;102964.38;;;4.93;75.31
42725;BME280;28369;44.046;23.014;2023-01-24T15:04:50;102926.72;;;4.28;74.92
42725;BME280;28369;44.046;23.014;2023-01-24T15:07:16;102376.16;;;0.92;75.08
42725;BME280;28369;44.046;23.014;2023-01-24T15:09:42;102769.69;;;3.41;74.03
42725;BME280;28369;44.046;23.014;2023-01-24T15:12:23;102493.66;;;1.94;73.93
42725;BME280;28369;44.046;23.014;2023-01-24T15:14:50;102746.72;;;3.20;74.45
42725;BME280;28369;44.046;23.014;2023-01-24T15:17:25;102954.78;;;4.95;74.73
42725;BME280;28369;44.046;23.014;2023-01-24T15:19:58;102578.22;;;2.54;74.36
42725;BME280;28369;44.046;23.014;2023-01-24T15:22:26;102590.69;;;2.81;74.81
42725;BME280;28369;44.046;23.014;2023-01-24T15:24:54;102448.88;;;1.86;74.96
42725;BME280;28369;44.046;23.014;2023-01-24T15:27:28;102854.72;;;3.85;75.24